PWSweather.com
Personal Weather Stations
Station Observations
MENWDWX1
Menstrie, ScotlandGB

MenstrieScotlandGB

Lat: 56.148322, Lon: -3.85483

Elevation: 62

Station Type: Davis Vantage Pro 2

High Low Average
Temperature 59.3°F15.2°C 49.3°F9.6°C 53.5°F11.9°C
Dew Point 48.9°F9.4°C 42.1°F5.6°C 45.2°F7.3°C
Winds 10.4 mph 16.7 kmh Calm Calm 5.0 mph SE8.0 kmh SE
Wind Gusts 15.0 mph24.1 kmh -- 7.0 mph11.3 kmh
Humidity 77% 66% 74%
Pressure 30.31 in1026.4 mb 30.15 in1021.0 mb -
Precipitation 0.00 in0.0 mm - -
Hour Temp Dew Point Humidity Winds Wind Gusts Pressure Precip Precip Rate Daily Precip Total
12:00 AM 53.9°F12.2°C 46.5°F8.1°C 76% 3.5 mph S5.6 kmh S 4.6 mph7.4 kmh 30.15 in1021.0 mb - 0.00 in0.0 mm 0.00 in0.0 mm
12:05 AM 53.5°F11.9°C 46.1°F7.8°C 76% 1.2 mph SE1.9 kmh SE 2.3 mph3.7 kmh 30.15 in1021.0 mb - 0.00 in0.0 mm 0.00 in0.0 mm
12:10 AM 53.2°F11.8°C 45.8°F7.7°C 76% 1.2 mph WSW1.9 kmh WSW 2.3 mph3.7 kmh 30.15 in1021.0 mb - 0.00 in0.0 mm 0.00 in0.0 mm
12:15 AM 53.0°F11.7°C 46.0°F7.8°C 77% 1.2 mph WSW1.9 kmh WSW 3.5 mph5.6 kmh 30.15 in1021.0 mb - 0.00 in0.0 mm 0.00 in0.0 mm
12:20 AM 52.7°F11.5°C 45.7°F7.6°C 77% 2.3 mph SSE3.7 kmh SSE 3.5 mph5.6 kmh 30.15 in1021.0 mb - 0.00 in0.0 mm 0.00 in0.0 mm
12:25 AM 52.6°F11.4°C 45.6°F7.6°C 77% 5.8 mph E9.3 kmh E 6.9 mph11.1 kmh 30.16 in1021.3 mb - 0.00 in0.0 mm 0.00 in0.0 mm
12:30 AM 52.5°F11.4°C 45.2°F7.3°C 76% 1.2 mph S1.9 kmh S 1.2 mph1.9 kmh 30.16 in1021.3 mb - 0.00 in0.0 mm 0.00 in0.0 mm
12:35 AM 52.3°F11.3°C 45.3°F7.4°C 77% 1.2 mph S1.9 kmh S 3.5 mph5.6 kmh 30.16 in1021.3 mb - 0.00 in0.0 mm 0.00 in0.0 mm
12:40 AM 52.3°F11.3°C 45.3°F7.4°C 77% Calm Calm -- 30.16 in1021.3 mb - 0.00 in0.0 mm 0.00 in0.0 mm
12:45 AM 52.2°F11.2°C 45.2°F7.3°C 77% Calm Calm -- 30.16 in1021.3 mb - 0.00 in0.0 mm 0.00 in0.0 mm
12:50 AM 51.9°F11.1°C 44.9°F7.2°C 77% 1.2 mph S1.9 kmh S 2.3 mph3.7 kmh 30.17 in1021.7 mb - 0.00 in0.0 mm 0.00 in0.0 mm
12:55 AM 51.7°F10.9°C 44.7°F7.1°C 77% Calm Calm -- 30.16 in1021.3 mb - 0.00 in0.0 mm 0.00 in0.0 mm
01:00 AM 51.4°F10.8°C 44.4°F6.9°C 77% 1.2 mph S1.9 kmh S 3.5 mph5.6 kmh 30.16 in1021.3 mb - 0.00 in0.0 mm 0.00 in0.0 mm
01:05 AM 51.4°F10.8°C 44.4°F6.9°C 77% Calm Calm 1.2 mph1.9 kmh 30.17 in1021.7 mb - 0.00 in0.0 mm 0.00 in0.0 mm
01:10 AM 51.4°F10.8°C 44.4°F6.9°C 77% Calm Calm -- 30.16 in1021.3 mb - 0.00 in0.0 mm 0.00 in0.0 mm
01:15 AM 51.3°F10.7°C 44.3°F6.8°C 77% Calm Calm -- 30.17 in1021.7 mb - 0.00 in0.0 mm 0.00 in0.0 mm
01:20 AM 51.3°F10.7°C 44.3°F6.8°C 77% Calm Calm -- 30.17 in1021.7 mb - 0.00 in0.0 mm 0.00 in0.0 mm
01:25 AM 51.2°F10.7°C 44.2°F6.8°C 77% Calm Calm -- 30.18 in1022.0 mb - 0.00 in0.0 mm 0.00 in0.0 mm
01:30 AM 51.1°F10.6°C 44.1°F6.7°C 77% Calm Calm -- 30.18 in1022.0 mb - 0.00 in0.0 mm 0.00 in0.0 mm
01:35 AM 51.1°F10.6°C 44.1°F6.7°C 77% Calm Calm -- 30.18 in1022.0 mb - 0.00 in0.0 mm 0.00 in0.0 mm
01:40 AM 50.9°F10.5°C 43.9°F6.6°C 77% Calm Calm -- 30.18 in1022.0 mb - 0.00 in0.0 mm 0.00 in0.0 mm
01:45 AM 50.8°F10.4°C 43.9°F6.6°C 77% Calm Calm -- 30.18 in1022.0 mb - 0.00 in0.0 mm 0.00 in0.0 mm
01:50 AM 50.7°F10.4°C 43.8°F6.6°C 77% Calm Calm -- 30.18 in1022.0 mb - 0.00 in0.0 mm 0.00 in0.0 mm
01:55 AM 50.6°F10.3°C 43.7°F6.5°C 77% Calm Calm -- 30.18 in1022.0 mb - 0.00 in0.0 mm 0.00 in0.0 mm
02:00 AM 50.6°F10.3°C 43.7°F6.5°C 77% Calm Calm -- 30.18 in1022.0 mb - 0.00 in0.0 mm 0.00 in0.0 mm
02:05 AM 50.6°F10.3°C 43.7°F6.5°C 77% Calm Calm -- 30.18 in1022.0 mb - 0.00 in0.0 mm 0.00 in0.0 mm
02:10 AM 50.7°F10.4°C 43.8°F6.6°C 77% Calm Calm -- 30.18 in1022.0 mb - 0.00 in0.0 mm 0.00 in0.0 mm
02:15 AM 50.7°F10.4°C 43.8°F6.6°C 77% Calm Calm -- 30.18 in1022.0 mb - 0.00 in0.0 mm 0.00 in0.0 mm
02:20 AM 50.7°F10.4°C 43.8°F6.6°C 77% Calm Calm -- 30.18 in1022.0 mb - 0.00 in0.0 mm 0.00 in0.0 mm
02:25 AM 50.6°F10.3°C 43.7°F6.5°C 77% Calm Calm -- 30.18 in1022.0 mb - 0.00 in0.0 mm 0.00 in0.0 mm
02:30 AM 50.5°F10.3°C 43.6°F6.4°C 77% Calm Calm -- 30.18 in1022.0 mb - 0.00 in0.0 mm 0.00 in0.0 mm
02:35 AM 50.3°F10.2°C 43.4°F6.3°C 77% Calm Calm -- 30.19 in1022.4 mb - 0.00 in0.0 mm 0.00 in0.0 mm
02:40 AM 50.2°F10.1°C 43.3°F6.3°C 77% Calm Calm -- 30.18 in1022.0 mb - 0.00 in0.0 mm 0.00 in0.0 mm
02:45 AM 50.2°F10.1°C 43.3°F6.3°C 77% Calm Calm -- 30.19 in1022.4 mb - 0.00 in0.0 mm 0.00 in0.0 mm
02:50 AM 50.2°F10.1°C 43.3°F6.3°C 77% Calm Calm -- 30.19 in1022.4 mb - 0.00 in0.0 mm 0.00 in0.0 mm
02:55 AM 50.2°F10.1°C 43.3°F6.3°C 77% Calm Calm -- 30.19 in1022.4 mb - 0.00 in0.0 mm 0.00 in0.0 mm
03:00 AM 50.3°F10.2°C 43.4°F6.3°C 77% Calm Calm -- 30.19 in1022.4 mb - 0.00 in0.0 mm 0.00 in0.0 mm
03:05 AM 50.3°F10.2°C 43.4°F6.3°C 77% Calm Calm -- 30.19 in1022.4 mb - 0.00 in0.0 mm 0.00 in0.0 mm
03:10 AM 50.4°F10.2°C 43.1°F6.2°C 76% 2.3 mph E3.7 kmh E 2.3 mph3.7 kmh 30.19 in1022.4 mb - 0.00 in0.0 mm 0.00 in0.0 mm
03:15 AM 50.4°F10.2°C 43.1°F6.2°C 76% 8.1 mph E13.0 kmh E 9.2 mph14.8 kmh 30.19 in1022.4 mb - 0.00 in0.0 mm 0.00 in0.0 mm
03:20 AM 50.5°F10.3°C 43.2°F6.2°C 76% 3.5 mph ESE5.6 kmh ESE 9.2 mph14.8 kmh 30.19 in1022.4 mb - 0.00 in0.0 mm 0.00 in0.0 mm
03:25 AM 50.4°F10.2°C 43.1°F6.2°C 76% 4.6 mph E7.4 kmh E 5.8 mph9.3 kmh 30.19 in1022.4 mb - 0.00 in0.0 mm 0.00 in0.0 mm
03:30 AM 50.4°F10.2°C 43.1°F6.2°C 76% 2.3 mph E3.7 kmh E 3.5 mph5.6 kmh 30.19 in1022.4 mb - 0.00 in0.0 mm 0.00 in0.0 mm
03:35 AM 50.3°F10.2°C 43.0°F6.1°C 76% 3.5 mph E5.6 kmh E 5.8 mph9.3 kmh 30.19 in1022.4 mb - 0.00 in0.0 mm 0.00 in0.0 mm
03:40 AM 50.3°F10.2°C 43.0°F6.1°C 76% 4.6 mph E7.4 kmh E 8.1 mph13.0 kmh 30.19 in1022.4 mb - 0.00 in0.0 mm 0.00 in0.0 mm
03:45 AM 50.2°F10.1°C 42.9°F6.1°C 76% 5.8 mph E9.3 kmh E 9.2 mph14.8 kmh 30.19 in1022.4 mb - 0.00 in0.0 mm 0.00 in0.0 mm
03:50 AM 50.2°F10.1°C 42.9°F6.1°C 76% 2.3 mph E3.7 kmh E 3.5 mph5.6 kmh 30.20 in1022.7 mb - 0.00 in0.0 mm 0.00 in0.0 mm
03:55 AM 50.2°F10.1°C 42.9°F6.1°C 76% 4.6 mph ESE7.4 kmh ESE 5.8 mph9.3 kmh 30.20 in1022.7 mb - 0.00 in0.0 mm 0.00 in0.0 mm
04:00 AM 50.1°F10.1°C 42.8°F6.0°C 76% 4.6 mph ENE7.4 kmh ENE 4.6 mph7.4 kmh 30.20 in1022.7 mb - 0.00 in0.0 mm 0.00 in0.0 mm
04:05 AM 50.0°F10.0°C 42.7°F5.9°C 76% 4.6 mph E7.4 kmh E 9.2 mph14.8 kmh 30.20 in1022.7 mb - 0.00 in0.0 mm 0.00 in0.0 mm
04:10 AM 49.9°F9.9°C 42.6°F5.9°C 76% 3.5 mph E5.6 kmh E 6.9 mph11.1 kmh 30.20 in1022.7 mb - 0.00 in0.0 mm 0.00 in0.0 mm
04:15 AM 49.9°F9.9°C 42.6°F5.9°C 76% 5.8 mph E9.3 kmh E 9.2 mph14.8 kmh 30.20 in1022.7 mb - 0.00 in0.0 mm 0.00 in0.0 mm
04:20 AM 49.8°F9.9°C 42.5°F5.8°C 76% 4.6 mph ESE7.4 kmh ESE 5.8 mph9.3 kmh 30.20 in1022.7 mb - 0.00 in0.0 mm 0.00 in0.0 mm
04:25 AM 49.7°F9.8°C 42.4°F5.8°C 76% 4.6 mph E7.4 kmh E 5.8 mph9.3 kmh 30.20 in1022.7 mb - 0.00 in0.0 mm 0.00 in0.0 mm
04:30 AM 49.6°F9.8°C 42.7°F5.9°C 77% 4.6 mph E7.4 kmh E 8.1 mph13.0 kmh 30.20 in1022.7 mb - 0.00 in0.0 mm 0.00 in0.0 mm
04:35 AM 49.6°F9.8°C 42.7°F5.9°C 77% 3.5 mph ESE5.6 kmh ESE 8.1 mph13.0 kmh 30.20 in1022.7 mb - 0.00 in0.0 mm 0.00 in0.0 mm
04:40 AM 49.6°F9.8°C 42.7°F5.9°C 77% 6.9 mph E11.1 kmh E 9.2 mph14.8 kmh 30.20 in1022.7 mb - 0.00 in0.0 mm 0.00 in0.0 mm
04:45 AM 49.5°F9.7°C 42.2°F5.7°C 76% 4.6 mph E7.4 kmh E 6.9 mph11.1 kmh 30.20 in1022.7 mb - 0.00 in0.0 mm 0.00 in0.0 mm
04:50 AM 49.5°F9.7°C 42.2°F5.7°C 76% 4.6 mph E7.4 kmh E 8.1 mph13.0 kmh 30.20 in1022.7 mb - 0.00 in0.0 mm 0.00 in0.0 mm
04:55 AM 49.5°F9.7°C 42.6°F5.9°C 77% 2.3 mph SSE3.7 kmh SSE 3.5 mph5.6 kmh 30.21 in1023.0 mb - 0.00 in0.0 mm 0.00 in0.0 mm
05:00 AM 49.5°F9.7°C 42.6°F5.9°C 77% 3.5 mph SE5.6 kmh SE 4.6 mph7.4 kmh 30.21 in1023.0 mb - 0.00 in0.0 mm 0.00 in0.0 mm
05:05 AM 49.6°F9.8°C 42.7°F5.9°C 77% 4.6 mph E7.4 kmh E 5.8 mph9.3 kmh 30.21 in1023.0 mb - 0.00 in0.0 mm 0.00 in0.0 mm
05:10 AM 49.6°F9.8°C 42.7°F5.9°C 77% 3.5 mph E5.6 kmh E 5.8 mph9.3 kmh 30.21 in1023.0 mb - 0.00 in0.0 mm 0.00 in0.0 mm
05:15 AM 49.6°F9.8°C 42.7°F5.9°C 77% 4.6 mph E7.4 kmh E 8.1 mph13.0 kmh 30.21 in1023.0 mb - 0.00 in0.0 mm 0.00 in0.0 mm
05:20 AM 49.6°F9.8°C 42.7°F5.9°C 77% 3.5 mph ESE5.6 kmh ESE 5.8 mph9.3 kmh 30.21 in1023.0 mb - 0.00 in0.0 mm 0.00 in0.0 mm
05:25 AM 49.6°F9.8°C 42.7°F5.9°C 77% 5.8 mph ESE9.3 kmh ESE 11.5 mph18.5 kmh 30.21 in1023.0 mb - 0.00 in0.0 mm 0.00 in0.0 mm
05:30 AM 49.5°F9.7°C 42.6°F5.9°C 77% 3.5 mph ESE5.6 kmh ESE 5.8 mph9.3 kmh 30.21 in1023.0 mb - 0.00 in0.0 mm 0.00 in0.0 mm
05:35 AM 49.6°F9.8°C 42.3°F5.7°C 76% 5.8 mph E9.3 kmh E 9.2 mph14.8 kmh 30.22 in1023.4 mb - 0.00 in0.0 mm 0.00 in0.0 mm
05:40 AM 49.4°F9.7°C 42.1°F5.6°C 76% 4.6 mph E7.4 kmh E 5.8 mph9.3 kmh 30.22 in1023.4 mb - 0.00 in0.0 mm 0.00 in0.0 mm
05:45 AM 49.3°F9.6°C 42.1°F5.6°C 76% 4.6 mph E7.4 kmh E 4.6 mph7.4 kmh 30.22 in1023.4 mb - 0.00 in0.0 mm 0.00 in0.0 mm
05:50 AM 49.3°F9.6°C 42.4°F5.8°C 77% 4.6 mph E7.4 kmh E 4.6 mph7.4 kmh 30.22 in1023.4 mb - 0.00 in0.0 mm 0.00 in0.0 mm
05:55 AM 49.4°F9.7°C 42.4°F5.8°C 77% 4.6 mph E7.4 kmh E 5.8 mph9.3 kmh 30.22 in1023.4 mb - 0.00 in0.0 mm 0.00 in0.0 mm
06:00 AM 49.5°F9.7°C 42.6°F5.9°C 77% 3.5 mph E5.6 kmh E 3.5 mph5.6 kmh 30.22 in1023.4 mb - 0.00 in0.0 mm 0.00 in0.0 mm
06:05 AM 49.6°F9.8°C 42.7°F5.9°C 77% 1.2 mph SE1.9 kmh SE 3.5 mph5.6 kmh 30.22 in1023.4 mb - 0.00 in0.0 mm 0.00 in0.0 mm
06:10 AM 49.7°F9.8°C 42.8°F6.0°C 77% 2.3 mph E3.7 kmh E 3.5 mph5.6 kmh 30.22 in1023.4 mb - 0.00 in0.0 mm 0.00 in0.0 mm
06:15 AM 49.9°F9.9°C 43.0°F6.1°C 77% 2.3 mph ESE3.7 kmh ESE 4.6 mph7.4 kmh 30.22 in1023.4 mb - 0.00 in0.0 mm 0.00 in0.0 mm
06:20 AM 49.9°F9.9°C 42.6°F5.9°C 76% 3.5 mph E5.6 kmh E 3.5 mph5.6 kmh 30.22 in1023.4 mb - 0.00 in0.0 mm 0.00 in0.0 mm
06:25 AM 50.1°F10.1°C 42.8°F6.0°C 76% 1.2 mph E1.9 kmh E 5.8 mph9.3 kmh 30.22 in1023.4 mb - 0.00 in0.0 mm 0.00 in0.0 mm
06:30 AM 50.3°F10.2°C 43.0°F6.1°C 76% 1.2 mph E1.9 kmh E 3.5 mph5.6 kmh 30.22 in1023.4 mb - 0.00 in0.0 mm 0.00 in0.0 mm
06:35 AM 50.5°F10.3°C 43.2°F6.2°C 76% 2.3 mph E3.7 kmh E 3.5 mph5.6 kmh 30.23 in1023.7 mb - 0.00 in0.0 mm 0.00 in0.0 mm
06:40 AM 50.8°F10.4°C 43.5°F6.4°C 76% 2.3 mph SE3.7 kmh SE 4.6 mph7.4 kmh 30.23 in1023.7 mb - 0.00 in0.0 mm 0.00 in0.0 mm
06:45 AM 51.0°F10.6°C 43.7°F6.5°C 76% 1.2 mph S1.9 kmh S 3.5 mph5.6 kmh 30.22 in1023.4 mb - 0.00 in0.0 mm 0.00 in0.0 mm
06:50 AM 51.2°F10.7°C 43.5°F6.4°C 75% Calm Calm 1.2 mph1.9 kmh 30.22 in1023.4 mb - 0.00 in0.0 mm 0.00 in0.0 mm
06:55 AM 51.4°F10.8°C 43.7°F6.5°C 75% 2.3 mph SE3.7 kmh SE 4.6 mph7.4 kmh 30.22 in1023.4 mb - 0.00 in0.0 mm 0.00 in0.0 mm
07:00 AM 51.6°F10.9°C 43.9°F6.6°C 75% 4.6 mph SE7.4 kmh SE 4.6 mph7.4 kmh 30.22 in1023.4 mb - 0.00 in0.0 mm 0.00 in0.0 mm
07:05 AM 51.8°F11.0°C 44.1°F6.7°C 75% 3.5 mph ESE5.6 kmh ESE 5.8 mph9.3 kmh 30.22 in1023.4 mb - 0.00 in0.0 mm 0.00 in0.0 mm
07:10 AM 52.0°F11.1°C 44.0°F6.7°C 74% 3.5 mph E5.6 kmh E 5.8 mph9.3 kmh 30.22 in1023.4 mb - 0.00 in0.0 mm 0.00 in0.0 mm
07:15 AM 52.4°F11.3°C 44.4°F6.9°C 74% 3.5 mph E5.6 kmh E 4.6 mph7.4 kmh 30.22 in1023.4 mb - 0.00 in0.0 mm 0.00 in0.0 mm
07:20 AM 52.8°F11.6°C 44.7°F7.1°C 74% 1.2 mph SE1.9 kmh SE 3.5 mph5.6 kmh 30.22 in1023.4 mb - 0.00 in0.0 mm 0.00 in0.0 mm
07:25 AM 53.0°F11.7°C 44.6°F7.0°C 73% 3.5 mph SE5.6 kmh SE 4.6 mph7.4 kmh 30.22 in1023.4 mb - 0.00 in0.0 mm 0.00 in0.0 mm
07:30 AM 53.2°F11.8°C 44.8°F7.1°C 73% 4.6 mph SE7.4 kmh SE 5.8 mph9.3 kmh 30.22 in1023.4 mb - 0.00 in0.0 mm 0.00 in0.0 mm
07:35 AM 53.7°F12.1°C 44.9°F7.2°C 72% 2.3 mph SSE3.7 kmh SSE 3.5 mph5.6 kmh 30.22 in1023.4 mb - 0.00 in0.0 mm 0.00 in0.0 mm
07:40 AM 54.3°F12.4°C 45.5°F7.5°C 72% 1.2 mph S1.9 kmh S 8.1 mph13.0 kmh 30.22 in1023.4 mb - 0.00 in0.0 mm 0.00 in0.0 mm
07:45 AM 54.6°F12.6°C 45.0°F7.2°C 70% 5.8 mph ESE9.3 kmh ESE 8.1 mph13.0 kmh 30.22 in1023.4 mb - 0.00 in0.0 mm 0.00 in0.0 mm
07:50 AM 54.5°F12.5°C 44.5°F6.9°C 69% 4.6 mph E7.4 kmh E 6.9 mph11.1 kmh 30.22 in1023.4 mb - 0.00 in0.0 mm 0.00 in0.0 mm
07:55 AM 54.4°F12.4°C 44.8°F7.1°C 70% 3.5 mph SE5.6 kmh SE 4.6 mph7.4 kmh 30.22 in1023.4 mb - 0.00 in0.0 mm 0.00 in0.0 mm
08:00 AM 54.4°F12.4°C 44.4°F6.9°C 69% 4.6 mph ESE7.4 kmh ESE 9.2 mph14.8 kmh 30.22 in1023.4 mb - 0.00 in0.0 mm 0.00 in0.0 mm
08:05 AM 54.4°F12.4°C 44.4°F6.9°C 69% 5.8 mph SE9.3 kmh SE 8.1 mph13.0 kmh 30.22 in1023.4 mb - 0.00 in0.0 mm 0.00 in0.0 mm
08:10 AM 54.5°F12.5°C 44.5°F6.9°C 69% 4.6 mph SE7.4 kmh SE 6.9 mph11.1 kmh 30.22 in1023.4 mb - 0.00 in0.0 mm 0.00 in0.0 mm
08:15 AM 54.8°F12.7°C 45.2°F7.3°C 70% 6.9 mph SE11.1 kmh SE 10.4 mph16.7 kmh 30.22 in1023.4 mb - 0.00 in0.0 mm 0.00 in0.0 mm
08:20 AM 54.8°F12.7°C 44.8°F7.1°C 69% 4.6 mph E7.4 kmh E 9.2 mph14.8 kmh 30.22 in1023.4 mb - 0.00 in0.0 mm 0.00 in0.0 mm
08:25 AM 54.9°F12.7°C 44.9°F7.2°C 69% 4.6 mph SE7.4 kmh SE 6.9 mph11.1 kmh 30.22 in1023.4 mb - 0.00 in0.0 mm 0.00 in0.0 mm
08:30 AM 55.1°F12.8°C 44.7°F7.1°C 68% 8.1 mph ESE13.0 kmh ESE 11.5 mph18.5 kmh 30.22 in1023.4 mb - 0.00 in0.0 mm 0.00 in0.0 mm
08:35 AM 54.9°F12.7°C 44.5°F6.9°C 68% 5.8 mph SE9.3 kmh SE 9.2 mph14.8 kmh 30.22 in1023.4 mb - 0.00 in0.0 mm 0.00 in0.0 mm
08:40 AM 55.0°F12.8°C 44.6°F7.0°C 68% 3.5 mph SSE5.6 kmh SSE 5.8 mph9.3 kmh 30.23 in1023.7 mb - 0.00 in0.0 mm 0.00 in0.0 mm
08:45 AM 55.0°F12.8°C 44.7°F7.1°C 68% 9.2 mph E14.8 kmh E 11.5 mph18.5 kmh 30.23 in1023.7 mb - 0.00 in0.0 mm 0.00 in0.0 mm
08:50 AM 55.2°F12.9°C 44.8°F7.1°C 68% 4.6 mph SE7.4 kmh SE 10.4 mph16.7 kmh 30.23 in1023.7 mb - 0.00 in0.0 mm 0.00 in0.0 mm
08:55 AM 55.3°F12.9°C 44.9°F7.2°C 68% 4.6 mph E7.4 kmh E 6.9 mph11.1 kmh 30.23 in1023.7 mb - 0.00 in0.0 mm 0.00 in0.0 mm
09:00 AM 55.4°F13.0°C 45.0°F7.2°C 68% 5.8 mph SE9.3 kmh SE 11.5 mph18.5 kmh 30.23 in1023.7 mb - 0.00 in0.0 mm 0.00 in0.0 mm
09:05 AM 55.5°F13.1°C 45.1°F7.3°C 68% 3.5 mph SE5.6 kmh SE 8.1 mph13.0 kmh 30.23 in1023.7 mb - 0.00 in0.0 mm 0.00 in0.0 mm
09:10 AM 55.6°F13.1°C 44.8°F7.1°C 67% 4.6 mph SE7.4 kmh SE 8.1 mph13.0 kmh 30.23 in1023.7 mb - 0.00 in0.0 mm 0.00 in0.0 mm
09:15 AM 55.8°F13.2°C 45.7°F7.6°C 69% 4.6 mph ESE7.4 kmh ESE 9.2 mph14.8 kmh 30.23 in1023.7 mb - 0.00 in0.0 mm 0.00 in0.0 mm
09:20 AM 55.8°F13.2°C 44.6°F7.0°C 66% 4.6 mph SE7.4 kmh SE 8.1 mph13.0 kmh 30.23 in1023.7 mb - 0.00 in0.0 mm 0.00 in0.0 mm
09:25 AM 55.7°F13.2°C 44.9°F7.2°C 67% 4.6 mph SSE7.4 kmh SSE 9.2 mph14.8 kmh 30.23 in1023.7 mb - 0.00 in0.0 mm 0.00 in0.0 mm
09:30 AM 55.3°F12.9°C 45.7°F7.6°C 70% 2.3 mph SE3.7 kmh SE 3.5 mph5.6 kmh 30.23 in1023.7 mb - 0.00 in0.0 mm 0.00 in0.0 mm
09:35 AM 55.5°F13.1°C 45.1°F7.3°C 68% 3.5 mph SSE5.6 kmh SSE 6.9 mph11.1 kmh 30.23 in1023.7 mb - 0.00 in0.0 mm 0.00 in0.0 mm
09:40 AM 55.7°F13.2°C 46.1°F7.8°C 70% 6.9 mph S11.1 kmh S 10.4 mph16.7 kmh 30.23 in1023.7 mb - 0.00 in0.0 mm 0.00 in0.0 mm
09:45 AM 55.2°F12.9°C 45.9°F7.7°C 71% 6.9 mph SSE11.1 kmh SSE 10.4 mph16.7 kmh 30.23 in1023.7 mb - 0.00 in0.0 mm 0.00 in0.0 mm
09:50 AM 54.8°F12.7°C 45.6°F7.6°C 71% 6.9 mph SSE11.1 kmh SSE 11.5 mph18.5 kmh 30.23 in1023.7 mb - 0.00 in0.0 mm 0.00 in0.0 mm
09:55 AM 54.6°F12.6°C 45.8°F7.7°C 72% 5.8 mph SSE9.3 kmh SSE 10.4 mph16.7 kmh 30.23 in1023.7 mb - 0.00 in0.0 mm 0.00 in0.0 mm
10:00 AM 54.6°F12.6°C 45.8°F7.7°C 72% 4.6 mph SE7.4 kmh SE 10.4 mph16.7 kmh 30.23 in1023.7 mb - 0.00 in0.0 mm 0.00 in0.0 mm
10:05 AM 54.8°F12.7°C 46.0°F7.8°C 72% 6.9 mph SSE11.1 kmh SSE 10.4 mph16.7 kmh 30.23 in1023.7 mb - 0.00 in0.0 mm 0.00 in0.0 mm
10:10 AM 55.6°F13.1°C 46.3°F7.9°C 71% 8.1 mph SSE13.0 kmh SSE 12.7 mph20.4 kmh 30.23 in1023.7 mb - 0.00 in0.0 mm 0.00 in0.0 mm
10:15 AM 56.1°F13.4°C 46.8°F8.2°C 71% 6.9 mph SE11.1 kmh SE 10.4 mph16.7 kmh 30.23 in1023.7 mb - 0.00 in0.0 mm 0.00 in0.0 mm
10:20 AM 56.3°F13.5°C 46.7°F8.2°C 70% 6.9 mph S11.1 kmh S 11.5 mph18.5 kmh 30.23 in1023.7 mb - 0.00 in0.0 mm 0.00 in0.0 mm
10:25 AM 56.6°F13.7°C 46.5°F8.1°C 69% 6.9 mph SE11.1 kmh SE 12.7 mph20.4 kmh 30.23 in1023.7 mb - 0.00 in0.0 mm 0.00 in0.0 mm
10:30 AM 56.9°F13.8°C 46.9°F8.3°C 69% 6.9 mph SE11.1 kmh SE 9.2 mph14.8 kmh 30.23 in1023.7 mb - 0.00 in0.0 mm 0.00 in0.0 mm
10:35 AM 56.8°F13.8°C 46.4°F8.0°C 68% 6.9 mph SSE11.1 kmh SSE 11.5 mph18.5 kmh 30.23 in1023.7 mb - 0.00 in0.0 mm 0.00 in0.0 mm
10:40 AM 57.1°F13.9°C 47.1°F8.4°C 69% 5.8 mph SE9.3 kmh SE 10.4 mph16.7 kmh 30.23 in1023.7 mb - 0.00 in0.0 mm 0.00 in0.0 mm
10:45 AM 56.9°F13.8°C 46.9°F8.3°C 69% 6.9 mph SE11.1 kmh SE 9.2 mph14.8 kmh 30.23 in1023.7 mb - 0.00 in0.0 mm 0.00 in0.0 mm
10:50 AM 56.6°F13.7°C 46.9°F8.3°C 70% 3.5 mph SE5.6 kmh SE 8.1 mph13.0 kmh 30.23 in1023.7 mb - 0.00 in0.0 mm 0.00 in0.0 mm
10:55 AM 56.5°F13.6°C 46.8°F8.2°C 70% 6.9 mph S11.1 kmh S 12.7 mph20.4 kmh 30.23 in1023.7 mb - 0.00 in0.0 mm 0.00 in0.0 mm
11:00 AM 56.3°F13.5°C 47.1°F8.4°C 71% 4.6 mph E7.4 kmh E 8.1 mph13.0 kmh 30.23 in1023.7 mb - 0.00 in0.0 mm 0.00 in0.0 mm
11:05 AM 56.8°F13.8°C 47.1°F8.4°C 70% 8.1 mph SE13.0 kmh SE 11.5 mph18.5 kmh 30.23 in1023.7 mb - 0.00 in0.0 mm 0.00 in0.0 mm
11:10 AM 57.2°F14.0°C 47.5°F8.6°C 70% 6.9 mph SE11.1 kmh SE 11.5 mph18.5 kmh 30.23 in1023.7 mb - 0.00 in0.0 mm 0.00 in0.0 mm
11:15 AM 57.3°F14.1°C 47.2°F8.4°C 69% 6.9 mph SSE11.1 kmh SSE 11.5 mph18.5 kmh 30.23 in1023.7 mb - 0.00 in0.0 mm 0.00 in0.0 mm
11:20 AM 57.5°F14.2°C 47.0°F8.3°C 68% 6.9 mph SE11.1 kmh SE 11.5 mph18.5 kmh 30.23 in1023.7 mb - 0.00 in0.0 mm 0.00 in0.0 mm
11:25 AM 57.5°F14.2°C 47.0°F8.3°C 68% 8.1 mph S13.0 kmh S 10.4 mph16.7 kmh 30.23 in1023.7 mb - 0.00 in0.0 mm 0.00 in0.0 mm
11:30 AM 57.0°F13.9°C 47.3°F8.5°C 70% 5.8 mph SE9.3 kmh SE 8.1 mph13.0 kmh 30.23 in1023.7 mb - 0.00 in0.0 mm 0.00 in0.0 mm
11:35 AM 57.1°F13.9°C 47.4°F8.6°C 70% 4.6 mph SE7.4 kmh SE 9.2 mph14.8 kmh 30.23 in1023.7 mb - 0.00 in0.0 mm 0.00 in0.0 mm
11:40 AM 57.0°F13.9°C 47.0°F8.3°C 69% 3.5 mph S5.6 kmh S 4.6 mph7.4 kmh 30.23 in1023.7 mb - 0.00 in0.0 mm 0.00 in0.0 mm
11:45 AM 57.0°F13.9°C 46.9°F8.3°C 69% 8.1 mph SSE13.0 kmh SSE 10.4 mph16.7 kmh 30.23 in1023.7 mb - 0.00 in0.0 mm 0.00 in0.0 mm
11:50 AM 56.8°F13.8°C 47.1°F8.4°C 70% 6.9 mph SE11.1 kmh SE 11.5 mph18.5 kmh 30.23 in1023.7 mb - 0.00 in0.0 mm 0.00 in0.0 mm
11:55 AM 56.6°F13.7°C 46.9°F8.3°C 70% 6.9 mph S11.1 kmh S 12.7 mph20.4 kmh 30.23 in1023.7 mb - 0.00 in0.0 mm 0.00 in0.0 mm
12:00 PM 56.3°F13.5°C 47.1°F8.4°C 71% 6.9 mph SSE11.1 kmh SSE 11.5 mph18.5 kmh 30.23 in1023.7 mb - 0.00 in0.0 mm 0.00 in0.0 mm
12:05 PM 56.1°F13.4°C 46.8°F8.2°C 71% 6.9 mph S11.1 kmh S 12.7 mph20.4 kmh 30.23 in1023.7 mb - 0.00 in0.0 mm 0.00 in0.0 mm
12:10 PM 55.9°F13.3°C 47.0°F8.3°C 72% 9.2 mph S14.8 kmh S 13.8 mph22.2 kmh 30.23 in1023.7 mb - 0.00 in0.0 mm 0.00 in0.0 mm
12:15 PM 56.2°F13.4°C 46.9°F8.3°C 71% 8.1 mph SSE13.0 kmh SSE 10.4 mph16.7 kmh 30.23 in1023.7 mb - 0.00 in0.0 mm 0.00 in0.0 mm
12:20 PM 56.0°F13.3°C 47.1°F8.4°C 72% 8.1 mph SSE13.0 kmh SSE 10.4 mph16.7 kmh 30.23 in1023.7 mb - 0.00 in0.0 mm 0.00 in0.0 mm
12:25 PM 56.2°F13.4°C 47.3°F8.5°C 72% 9.2 mph S14.8 kmh S 13.8 mph22.2 kmh 30.23 in1023.7 mb - 0.00 in0.0 mm 0.00 in0.0 mm
12:30 PM 55.9°F13.3°C 47.0°F8.3°C 72% 6.9 mph SSE11.1 kmh SSE 10.4 mph16.7 kmh 30.23 in1023.7 mb - 0.00 in0.0 mm 0.00 in0.0 mm
12:35 PM 55.8°F13.2°C 46.9°F8.3°C 72% 5.8 mph SSE9.3 kmh SSE 8.1 mph13.0 kmh 30.23 in1023.7 mb - 0.00 in0.0 mm 0.00 in0.0 mm
12:40 PM 56.0°F13.3°C 47.1°F8.4°C 72% 5.8 mph SSE9.3 kmh SSE 9.2 mph14.8 kmh 30.23 in1023.7 mb - 0.00 in0.0 mm 0.00 in0.0 mm
12:45 PM 56.3°F13.5°C 47.7°F8.7°C 73% 5.8 mph S9.3 kmh S 11.5 mph18.5 kmh 30.23 in1023.7 mb - 0.00 in0.0 mm 0.00 in0.0 mm
12:50 PM 56.2°F13.4°C 47.3°F8.5°C 72% 9.2 mph SSE14.8 kmh SSE 11.5 mph18.5 kmh 30.23 in1023.7 mb - 0.00 in0.0 mm 0.00 in0.0 mm
12:55 PM 56.4°F13.6°C 47.5°F8.6°C 72% 8.1 mph SE13.0 kmh SE 11.5 mph18.5 kmh 30.23 in1023.7 mb - 0.00 in0.0 mm 0.00 in0.0 mm
01:00 PM 56.6°F13.7°C 47.7°F8.7°C 72% 8.1 mph SSE13.0 kmh SSE 11.5 mph18.5 kmh 30.23 in1023.7 mb - 0.00 in0.0 mm 0.00 in0.0 mm
01:05 PM 56.6°F13.7°C 47.6°F8.7°C 72% 9.2 mph S14.8 kmh S 13.8 mph22.2 kmh 30.23 in1023.7 mb - 0.00 in0.0 mm 0.00 in0.0 mm
01:10 PM 56.8°F13.8°C 48.2°F9.0°C 73% 8.1 mph SE13.0 kmh SE 12.7 mph20.4 kmh 30.23 in1023.7 mb - 0.00 in0.0 mm 0.00 in0.0 mm
01:15 PM 56.9°F13.8°C 47.6°F8.7°C 71% 4.6 mph S7.4 kmh S 10.4 mph16.7 kmh 30.24 in1024.0 mb - 0.00 in0.0 mm 0.00 in0.0 mm
01:20 PM 56.4°F13.6°C 47.5°F8.6°C 72% 8.1 mph S13.0 kmh S 11.5 mph18.5 kmh 30.24 in1024.0 mb - 0.00 in0.0 mm 0.00 in0.0 mm
01:25 PM 56.0°F13.3°C 47.1°F8.4°C 72% 8.1 mph SE13.0 kmh SE 11.5 mph18.5 kmh 30.24 in1024.0 mb - 0.00 in0.0 mm 0.00 in0.0 mm
01:30 PM 55.9°F13.3°C 47.4°F8.6°C 73% 8.1 mph S13.0 kmh S 12.7 mph20.4 kmh 30.23 in1023.7 mb - 0.00 in0.0 mm 0.00 in0.0 mm
01:35 PM 56.1°F13.4°C 47.6°F8.7°C 73% 6.9 mph S11.1 kmh S 9.2 mph14.8 kmh 30.23 in1023.7 mb - 0.00 in0.0 mm 0.00 in0.0 mm
01:40 PM 56.5°F13.6°C 47.6°F8.7°C 72% 9.2 mph SSE14.8 kmh SSE 15.0 mph24.1 kmh 30.23 in1023.7 mb - 0.00 in0.0 mm 0.00 in0.0 mm
01:45 PM 56.7°F13.7°C 47.8°F8.8°C 72% 8.1 mph SSE13.0 kmh SSE 11.5 mph18.5 kmh 30.23 in1023.7 mb - 0.00 in0.0 mm 0.00 in0.0 mm
01:50 PM 56.7°F13.7°C 47.8°F8.8°C 72% 6.9 mph S11.1 kmh S 11.5 mph18.5 kmh 30.24 in1024.0 mb - 0.00 in0.0 mm 0.00 in0.0 mm
01:55 PM 56.5°F13.6°C 47.6°F8.7°C 72% 6.9 mph SSE11.1 kmh SSE 10.4 mph16.7 kmh 30.23 in1023.7 mb - 0.00 in0.0 mm 0.00 in0.0 mm
02:00 PM 56.4°F13.6°C 47.5°F8.6°C 72% 5.8 mph S9.3 kmh S 9.2 mph14.8 kmh 30.24 in1024.0 mb - 0.00 in0.0 mm 0.00 in0.0 mm
02:05 PM 56.4°F13.6°C 47.9°F8.8°C 73% 2.3 mph S3.7 kmh S 4.6 mph7.4 kmh 30.24 in1024.0 mb - 0.00 in0.0 mm 0.00 in0.0 mm
02:10 PM 56.4°F13.6°C 47.9°F8.8°C 73% 6.9 mph E11.1 kmh E 11.5 mph18.5 kmh 30.23 in1023.7 mb - 0.00 in0.0 mm 0.00 in0.0 mm
02:15 PM 56.9°F13.8°C 47.9°F8.8°C 72% 4.6 mph SE7.4 kmh SE 8.1 mph13.0 kmh 30.23 in1023.7 mb - 0.00 in0.0 mm 0.00 in0.0 mm
02:20 PM 57.3°F14.1°C 48.0°F8.9°C 71% 4.6 mph E7.4 kmh E 6.9 mph11.1 kmh 30.23 in1023.7 mb - 0.00 in0.0 mm 0.00 in0.0 mm
02:25 PM 57.7°F14.3°C 48.0°F8.9°C 70% 5.8 mph SE9.3 kmh SE 8.1 mph13.0 kmh 30.23 in1023.7 mb - 0.00 in0.0 mm 0.00 in0.0 mm
02:30 PM 57.9°F14.4°C 48.2°F9.0°C 70% 6.9 mph E11.1 kmh E 10.4 mph16.7 kmh 30.23 in1023.7 mb - 0.00 in0.0 mm 0.00 in0.0 mm
02:35 PM 58.2°F14.6°C 48.5°F9.2°C 70% 4.6 mph SE7.4 kmh SE 9.2 mph14.8 kmh 30.23 in1023.7 mb - 0.00 in0.0 mm 0.00 in0.0 mm
02:40 PM 58.3°F14.6°C 48.2°F9.0°C 69% 5.8 mph SE9.3 kmh SE 8.1 mph13.0 kmh 30.23 in1023.7 mb - 0.00 in0.0 mm 0.00 in0.0 mm
02:45 PM 58.4°F14.7°C 48.7°F9.3°C 70% 3.5 mph E5.6 kmh E 10.4 mph16.7 kmh 30.23 in1023.7 mb - 0.00 in0.0 mm 0.00 in0.0 mm
02:50 PM 58.9°F14.9°C 48.8°F9.3°C 69% 5.8 mph E9.3 kmh E 10.4 mph16.7 kmh 30.23 in1023.7 mb - 0.00 in0.0 mm 0.00 in0.0 mm
02:55 PM 59.3°F15.2°C 47.9°F8.8°C 66% 8.1 mph ESE13.0 kmh ESE 11.5 mph18.5 kmh 30.23 in1023.7 mb - 0.00 in0.0 mm 0.00 in0.0 mm
03:00 PM 59.0°F15.0°C 47.7°F8.7°C 66% 3.5 mph SE5.6 kmh SE 9.2 mph14.8 kmh 30.23 in1023.7 mb - 0.00 in0.0 mm 0.00 in0.0 mm
03:05 PM 59.1°F15.1°C 48.1°F8.9°C 67% 5.8 mph E9.3 kmh E 9.2 mph14.8 kmh 30.23 in1023.7 mb - 0.00 in0.0 mm 0.00 in0.0 mm
03:10 PM 59.2°F15.1°C 48.6°F9.2°C 68% 8.1 mph SE13.0 kmh SE 11.5 mph18.5 kmh 30.23 in1023.7 mb - 0.00 in0.0 mm 0.00 in0.0 mm
03:15 PM 59.0°F15.0°C 48.4°F9.1°C 68% 5.8 mph SSE9.3 kmh SSE 9.2 mph14.8 kmh 30.23 in1023.7 mb - 0.00 in0.0 mm 0.00 in0.0 mm
03:20 PM 58.8°F14.9°C 48.7°F9.3°C 69% 8.1 mph SSE13.0 kmh SSE 11.5 mph18.5 kmh 30.23 in1023.7 mb - 0.00 in0.0 mm 0.00 in0.0 mm
03:25 PM 58.6°F14.8°C 48.9°F9.4°C 70% 10.4 mph SE16.7 kmh SE 12.7 mph20.4 kmh 30.23 in1023.7 mb - 0.00 in0.0 mm 0.00 in0.0 mm
03:30 PM 58.6°F14.8°C 48.8°F9.3°C 70% 5.8 mph SSE9.3 kmh SSE 11.5 mph18.5 kmh 30.24 in1024.0 mb - 0.00 in0.0 mm 0.00 in0.0 mm
03:35 PM 58.5°F14.7°C 48.7°F9.3°C 70% 5.8 mph SSE9.3 kmh SSE 10.4 mph16.7 kmh 30.23 in1023.7 mb - 0.00 in0.0 mm 0.00 in0.0 mm
03:40 PM 58.4°F14.7°C 48.7°F9.3°C 70% 6.9 mph SSE11.1 kmh SSE 10.4 mph16.7 kmh 30.23 in1023.7 mb - 0.00 in0.0 mm 0.00 in0.0 mm
03:45 PM 57.7°F14.3°C 48.4°F9.1°C 71% 8.1 mph SSE13.0 kmh SSE 11.5 mph18.5 kmh 30.24 in1024.0 mb - 0.00 in0.0 mm 0.00 in0.0 mm
03:50 PM 57.2°F14.0°C 48.3°F9.1°C 72% 6.9 mph S11.1 kmh S 10.4 mph16.7 kmh 30.23 in1023.7 mb - 0.00 in0.0 mm 0.00 in0.0 mm
03:55 PM 57.5°F14.2°C 48.6°F9.2°C 72% 5.8 mph SSE9.3 kmh SSE 9.2 mph14.8 kmh 30.24 in1024.0 mb - 0.00 in0.0 mm 0.00 in0.0 mm
04:00 PM 58.2°F14.6°C 48.9°F9.4°C 71% 9.2 mph SSE14.8 kmh SSE 11.5 mph18.5 kmh 30.23 in1023.7 mb - 0.00 in0.0 mm 0.00 in0.0 mm
04:05 PM 57.8°F14.3°C 48.1°F8.9°C 70% 6.9 mph SE11.1 kmh SE 10.4 mph16.7 kmh 30.23 in1023.7 mb - 0.00 in0.0 mm 0.00 in0.0 mm
04:10 PM 57.6°F14.2°C 48.6°F9.2°C 72% 5.8 mph SE9.3 kmh SE 9.2 mph14.8 kmh 30.23 in1023.7 mb - 0.00 in0.0 mm 0.00 in0.0 mm
04:15 PM 57.4°F14.1°C 48.4°F9.1°C 72% 6.9 mph SE11.1 kmh SE 11.5 mph18.5 kmh 30.23 in1023.7 mb - 0.00 in0.0 mm 0.00 in0.0 mm
04:20 PM 56.9°F13.8°C 47.6°F8.7°C 71% 8.1 mph SE13.0 kmh SE 11.5 mph18.5 kmh 30.23 in1023.7 mb - 0.00 in0.0 mm 0.00 in0.0 mm
04:25 PM 56.5°F13.6°C 47.6°F8.7°C 72% 6.9 mph S11.1 kmh S 11.5 mph18.5 kmh 30.24 in1024.0 mb - 0.00 in0.0 mm 0.00 in0.0 mm
04:30 PM 56.8°F13.8°C 48.3°F9.1°C 73% 5.8 mph SE9.3 kmh SE 11.5 mph18.5 kmh 30.24 in1024.0 mb - 0.00 in0.0 mm 0.00 in0.0 mm
04:35 PM 57.4°F14.1°C 48.5°F9.2°C 72% 6.9 mph SE11.1 kmh SE 10.4 mph16.7 kmh 30.24 in1024.0 mb - 0.00 in0.0 mm 0.00 in0.0 mm
04:40 PM 57.5°F14.2°C 48.2°F9.0°C 71% 9.2 mph SE14.8 kmh SE 12.7 mph20.4 kmh 30.24 in1024.0 mb - 0.00 in0.0 mm 0.00 in0.0 mm
04:45 PM 57.5°F14.2°C 48.2°F9.0°C 71% 5.8 mph ESE9.3 kmh ESE 9.2 mph14.8 kmh 30.24 in1024.0 mb - 0.00 in0.0 mm 0.00 in0.0 mm
04:50 PM 57.5°F14.2°C 48.2°F9.0°C 71% 5.8 mph SE9.3 kmh SE 9.2 mph14.8 kmh 30.24 in1024.0 mb - 0.00 in0.0 mm 0.00 in0.0 mm
04:55 PM 57.4°F14.1°C 48.1°F8.9°C 71% 6.9 mph SE11.1 kmh SE 10.4 mph16.7 kmh 30.24 in1024.0 mb - 0.00 in0.0 mm 0.00 in0.0 mm
05:00 PM 57.1°F13.9°C 47.7°F8.7°C 71% 5.8 mph ESE9.3 kmh ESE 10.4 mph16.7 kmh 30.24 in1024.0 mb - 0.00 in0.0 mm 0.00 in0.0 mm
05:05 PM 56.8°F13.8°C 47.9°F8.8°C 72% 4.6 mph SE7.4 kmh SE 11.5 mph18.5 kmh 30.24 in1024.0 mb - 0.00 in0.0 mm 0.00 in0.0 mm
05:10 PM 56.7°F13.7°C 47.8°F8.8°C 72% 5.8 mph E9.3 kmh E 11.5 mph18.5 kmh 30.24 in1024.0 mb - 0.00 in0.0 mm 0.00 in0.0 mm
05:15 PM 56.7°F13.7°C 47.8°F8.8°C 72% 5.8 mph ESE9.3 kmh ESE 8.1 mph13.0 kmh 30.24 in1024.0 mb - 0.00 in0.0 mm 0.00 in0.0 mm
05:20 PM 56.8°F13.8°C 47.9°F8.8°C 72% 9.2 mph E14.8 kmh E 11.5 mph18.5 kmh 30.24 in1024.0 mb - 0.00 in0.0 mm 0.00 in0.0 mm
05:25 PM 56.6°F13.7°C 47.7°F8.7°C 72% 5.8 mph E9.3 kmh E 8.1 mph13.0 kmh 30.24 in1024.0 mb - 0.00 in0.0 mm 0.00 in0.0 mm
05:30 PM 56.4°F13.6°C 47.5°F8.6°C 72% 6.9 mph SE11.1 kmh SE 10.4 mph16.7 kmh 30.24 in1024.0 mb - 0.00 in0.0 mm 0.00 in0.0 mm
05:35 PM 56.2°F13.4°C 47.3°F8.5°C 72% 8.1 mph ESE13.0 kmh ESE 12.7 mph20.4 kmh 30.24 in1024.0 mb - 0.00 in0.0 mm 0.00 in0.0 mm
05:40 PM 56.1°F13.4°C 47.6°F8.7°C 73% 5.8 mph SSE9.3 kmh SSE 9.2 mph14.8 kmh 30.24 in1024.0 mb - 0.00 in0.0 mm 0.00 in0.0 mm
05:45 PM 56.0°F13.3°C 47.5°F8.6°C 73% 5.8 mph ESE9.3 kmh ESE 9.2 mph14.8 kmh 30.24 in1024.0 mb - 0.00 in0.0 mm 0.00 in0.0 mm
05:50 PM 55.9°F13.3°C 47.4°F8.6°C 73% 5.8 mph ESE9.3 kmh ESE 8.1 mph13.0 kmh 30.24 in1024.0 mb - 0.00 in0.0 mm 0.00 in0.0 mm
05:55 PM 55.8°F13.2°C 47.3°F8.5°C 73% 9.2 mph SE14.8 kmh SE 10.4 mph16.7 kmh 30.25 in1024.4 mb - 0.00 in0.0 mm 0.00 in0.0 mm
06:00 PM 55.7°F13.2°C 47.2°F8.4°C 73% 5.8 mph ESE9.3 kmh ESE 10.4 mph16.7 kmh 30.25 in1024.4 mb - 0.00 in0.0 mm 0.00 in0.0 mm
06:05 PM 55.7°F13.2°C 47.1°F8.4°C 73% 8.1 mph SE13.0 kmh SE 11.5 mph18.5 kmh 30.25 in1024.4 mb - 0.00 in0.0 mm 0.00 in0.0 mm
06:10 PM 55.3°F12.9°C 46.8°F8.2°C 73% 8.1 mph ESE13.0 kmh ESE 11.5 mph18.5 kmh 30.24 in1024.0 mb - 0.00 in0.0 mm 0.00 in0.0 mm
06:15 PM 55.1°F12.8°C 46.6°F8.1°C 73% 4.6 mph SE7.4 kmh SE 9.2 mph14.8 kmh 30.24 in1024.0 mb - 0.00 in0.0 mm 0.00 in0.0 mm
06:20 PM 54.9°F12.7°C 46.7°F8.2°C 74% 8.1 mph ESE13.0 kmh ESE 11.5 mph18.5 kmh 30.24 in1024.0 mb - 0.00 in0.0 mm 0.00 in0.0 mm
06:25 PM 54.6°F12.6°C 46.5°F8.1°C 74% 6.9 mph SE11.1 kmh SE 9.2 mph14.8 kmh 30.25 in1024.4 mb - 0.00 in0.0 mm 0.00 in0.0 mm
06:30 PM 54.4°F12.4°C 46.3°F7.9°C 74% 8.1 mph SE13.0 kmh SE 10.4 mph16.7 kmh 30.25 in1024.4 mb - 0.00 in0.0 mm 0.00 in0.0 mm
06:35 PM 54.1°F12.3°C 46.0°F7.8°C 74% 6.9 mph SE11.1 kmh SE 9.2 mph14.8 kmh 30.25 in1024.4 mb - 0.00 in0.0 mm 0.00 in0.0 mm
06:40 PM 53.8°F12.1°C 45.7°F7.6°C 74% 8.1 mph SE13.0 kmh SE 11.5 mph18.5 kmh 30.25 in1024.4 mb - 0.00 in0.0 mm 0.00 in0.0 mm
06:45 PM 53.5°F11.9°C 45.8°F7.7°C 75% 6.9 mph SE11.1 kmh SE 11.5 mph18.5 kmh 30.25 in1024.4 mb - 0.00 in0.0 mm 0.00 in0.0 mm
06:50 PM 53.3°F11.8°C 45.6°F7.6°C 75% 5.8 mph SE9.3 kmh SE 10.4 mph16.7 kmh 30.25 in1024.4 mb - 0.00 in0.0 mm 0.00 in0.0 mm
06:55 PM 53.2°F11.8°C 45.5°F7.5°C 75% 5.8 mph SE9.3 kmh SE 11.5 mph18.5 kmh 30.25 in1024.4 mb - 0.00 in0.0 mm 0.00 in0.0 mm
07:00 PM 53.0°F11.7°C 45.3°F7.4°C 75% 5.8 mph SE9.3 kmh SE 9.2 mph14.8 kmh 30.25 in1024.4 mb - 0.00 in0.0 mm 0.00 in0.0 mm
07:05 PM 52.9°F11.6°C 45.2°F7.3°C 75% 5.8 mph ESE9.3 kmh ESE 6.9 mph11.1 kmh 30.26 in1024.7 mb - 0.00 in0.0 mm 0.00 in0.0 mm
07:10 PM 53.0°F11.7°C 45.6°F7.6°C 76% 3.5 mph SE5.6 kmh SE 8.1 mph13.0 kmh 30.26 in1024.7 mb - 0.00 in0.0 mm 0.00 in0.0 mm
07:15 PM 53.0°F11.7°C 45.6°F7.6°C 76% 8.1 mph E13.0 kmh E 11.5 mph18.5 kmh 30.26 in1024.7 mb - 0.00 in0.0 mm 0.00 in0.0 mm
07:20 PM 53.0°F11.7°C 45.3°F7.4°C 75% 5.8 mph ESE9.3 kmh ESE 11.5 mph18.5 kmh 30.26 in1024.7 mb - 0.00 in0.0 mm 0.00 in0.0 mm
07:25 PM 52.9°F11.6°C 45.2°F7.3°C 75% 8.1 mph ESE13.0 kmh ESE 11.5 mph18.5 kmh 30.26 in1024.7 mb - 0.00 in0.0 mm 0.00 in0.0 mm
07:30 PM 52.8°F11.6°C 45.1°F7.3°C 75% 5.8 mph ESE9.3 kmh ESE 9.2 mph14.8 kmh 30.26 in1024.7 mb - 0.00 in0.0 mm 0.00 in0.0 mm
07:35 PM 52.7°F11.5°C 45.3°F7.4°C 76% 6.9 mph E11.1 kmh E 12.7 mph20.4 kmh 30.27 in1025.1 mb - 0.00 in0.0 mm 0.00 in0.0 mm
07:40 PM 52.5°F11.4°C 44.8°F7.1°C 75% 4.6 mph ESE7.4 kmh ESE 8.1 mph13.0 kmh 30.27 in1025.1 mb - 0.00 in0.0 mm 0.00 in0.0 mm
07:45 PM 52.4°F11.3°C 45.1°F7.3°C 76% 6.9 mph E11.1 kmh E 11.5 mph18.5 kmh 30.27 in1025.1 mb - 0.00 in0.0 mm 0.00 in0.0 mm
07:50 PM 52.4°F11.3°C 45.1°F7.3°C 76% 5.8 mph E9.3 kmh E 8.1 mph13.0 kmh 30.27 in1025.1 mb - 0.00 in0.0 mm 0.00 in0.0 mm
07:55 PM 52.4°F11.3°C 45.0°F7.2°C 76% 5.8 mph ESE9.3 kmh ESE 9.2 mph14.8 kmh 30.27 in1025.1 mb - 0.00 in0.0 mm 0.00 in0.0 mm
08:00 PM 52.2°F11.2°C 44.9°F7.2°C 76% 4.6 mph ESE7.4 kmh ESE 9.2 mph14.8 kmh 30.27 in1025.1 mb - 0.00 in0.0 mm 0.00 in0.0 mm
08:05 PM 52.1°F11.2°C 44.7°F7.1°C 76% 4.6 mph ESE7.4 kmh ESE 9.2 mph14.8 kmh 30.27 in1025.1 mb - 0.00 in0.0 mm 0.00 in0.0 mm
08:10 PM 51.9°F11.1°C 44.6°F7.0°C 76% 4.6 mph ESE7.4 kmh ESE 5.8 mph9.3 kmh 30.27 in1025.1 mb - 0.00 in0.0 mm 0.00 in0.0 mm
08:15 PM 51.8°F11.0°C 44.5°F6.9°C 76% 4.6 mph SE7.4 kmh SE 6.9 mph11.1 kmh 30.27 in1025.1 mb - 0.00 in0.0 mm 0.00 in0.0 mm
08:20 PM 51.7°F10.9°C 44.4°F6.9°C 76% 4.6 mph SE7.4 kmh SE 9.2 mph14.8 kmh 30.27 in1025.1 mb - 0.00 in0.0 mm 0.00 in0.0 mm
08:25 PM 51.6°F10.9°C 44.2°F6.8°C 76% 3.5 mph ESE5.6 kmh ESE 6.9 mph11.1 kmh 30.28 in1025.4 mb - 0.00 in0.0 mm 0.00 in0.0 mm
08:30 PM 51.4°F10.8°C 44.1°F6.7°C 76% 5.8 mph ESE9.3 kmh ESE 9.2 mph14.8 kmh 30.28 in1025.4 mb - 0.00 in0.0 mm 0.00 in0.0 mm
08:35 PM 51.3°F10.7°C 44.0°F6.7°C 76% 6.9 mph ESE11.1 kmh ESE 9.2 mph14.8 kmh 30.27 in1025.1 mb - 0.00 in0.0 mm 0.00 in0.0 mm
08:40 PM 51.2°F10.7°C 43.9°F6.6°C 76% 5.8 mph E9.3 kmh E 8.1 mph13.0 kmh 30.28 in1025.4 mb - 0.00 in0.0 mm 0.00 in0.0 mm
08:45 PM 51.2°F10.7°C 43.9°F6.6°C 76% 8.1 mph SE13.0 kmh SE 11.5 mph18.5 kmh 30.28 in1025.4 mb - 0.00 in0.0 mm 0.00 in0.0 mm
08:50 PM 51.0°F10.6°C 43.7°F6.5°C 76% 5.8 mph SE9.3 kmh SE 9.2 mph14.8 kmh 30.28 in1025.4 mb - 0.00 in0.0 mm 0.00 in0.0 mm
08:55 PM 51.0°F10.6°C 43.7°F6.5°C 76% 4.6 mph SE7.4 kmh SE 5.8 mph9.3 kmh 30.29 in1025.7 mb - 0.00 in0.0 mm 0.00 in0.0 mm
09:00 PM 51.0°F10.6°C 43.7°F6.5°C 76% 5.8 mph SE9.3 kmh SE 9.2 mph14.8 kmh 30.29 in1025.7 mb - 0.00 in0.0 mm 0.00 in0.0 mm
09:05 PM 50.9°F10.5°C 43.6°F6.4°C 76% 4.6 mph SE7.4 kmh SE 6.9 mph11.1 kmh 30.29 in1025.7 mb - 0.00 in0.0 mm 0.00 in0.0 mm
09:10 PM 51.0°F10.6°C 43.7°F6.5°C 76% 2.3 mph ESE3.7 kmh ESE 4.6 mph7.4 kmh 30.29 in1025.7 mb - 0.00 in0.0 mm 0.00 in0.0 mm
09:15 PM 50.9°F10.5°C 43.6°F6.4°C 76% 3.5 mph ESE5.6 kmh ESE 6.9 mph11.1 kmh 30.29 in1025.7 mb - 0.00 in0.0 mm 0.00 in0.0 mm
09:20 PM 50.8°F10.4°C 43.8°F6.6°C 77% 3.5 mph ESE5.6 kmh ESE 11.5 mph18.5 kmh 30.29 in1025.7 mb - 0.00 in0.0 mm 0.00 in0.0 mm
09:25 PM 50.7°F10.4°C 43.8°F6.6°C 77% 5.8 mph ESE9.3 kmh ESE 6.9 mph11.1 kmh 30.29 in1025.7 mb - 0.00 in0.0 mm 0.00 in0.0 mm
09:30 PM 50.6°F10.3°C 43.7°F6.5°C 77% 4.6 mph SE7.4 kmh SE 9.2 mph14.8 kmh 30.29 in1025.7 mb - 0.00 in0.0 mm 0.00 in0.0 mm
09:35 PM 50.6°F10.3°C 43.6°F6.4°C 77% 6.9 mph SE11.1 kmh SE 11.5 mph18.5 kmh 30.30 in1026.1 mb - 0.00 in0.0 mm 0.00 in0.0 mm
09:40 PM 50.5°F10.3°C 43.6°F6.4°C 77% 3.5 mph SE5.6 kmh SE 5.8 mph9.3 kmh 30.30 in1026.1 mb - 0.00 in0.0 mm 0.00 in0.0 mm
09:45 PM 50.5°F10.3°C 43.5°F6.4°C 77% 2.3 mph E3.7 kmh E 3.5 mph5.6 kmh 30.30 in1026.1 mb - 0.00 in0.0 mm 0.00 in0.0 mm
09:50 PM 50.4°F10.2°C 43.5°F6.4°C 77% 5.8 mph SE9.3 kmh SE 8.1 mph13.0 kmh 30.30 in1026.1 mb - 0.00 in0.0 mm 0.00 in0.0 mm
09:55 PM 50.3°F10.2°C 43.4°F6.3°C 77% 2.3 mph ESE3.7 kmh ESE 3.5 mph5.6 kmh 30.30 in1026.1 mb - 0.00 in0.0 mm 0.00 in0.0 mm
10:00 PM 50.3°F10.2°C 43.4°F6.3°C 77% 2.3 mph ESE3.7 kmh ESE 4.6 mph7.4 kmh 30.30 in1026.1 mb - 0.00 in0.0 mm 0.00 in0.0 mm
10:05 PM 50.3°F10.2°C 43.4°F6.3°C 77% 3.5 mph SE5.6 kmh SE 6.9 mph11.1 kmh 30.30 in1026.1 mb - 0.00 in0.0 mm 0.00 in0.0 mm
10:10 PM 50.3°F10.2°C 43.3°F6.3°C 77% 3.5 mph SE5.6 kmh SE 3.5 mph5.6 kmh 30.30 in1026.1 mb - 0.00 in0.0 mm 0.00 in0.0 mm
10:15 PM 50.2°F10.1°C 43.3°F6.3°C 77% 2.3 mph SE3.7 kmh SE 3.5 mph5.6 kmh 30.30 in1026.1 mb - 0.00 in0.0 mm 0.00 in0.0 mm
10:20 PM 50.3°F10.2°C 43.3°F6.3°C 77% 2.3 mph SE3.7 kmh SE 3.5 mph5.6 kmh 30.31 in1026.4 mb - 0.00 in0.0 mm 0.00 in0.0 mm
10:25 PM 50.2°F10.1°C 43.3°F6.3°C 77% 2.3 mph SE3.7 kmh SE 3.5 mph5.6 kmh 30.30 in1026.1 mb - 0.00 in0.0 mm 0.00 in0.0 mm
10:30 PM 50.2°F10.1°C 43.3°F6.3°C 77% 2.3 mph SE3.7 kmh SE 3.5 mph5.6 kmh 30.31 in1026.4 mb - 0.00 in0.0 mm 0.00 in0.0 mm
10:35 PM 50.2°F10.1°C 43.3°F6.3°C 77% 3.5 mph SE5.6 kmh SE 6.9 mph11.1 kmh 30.30 in1026.1 mb - 0.00 in0.0 mm 0.00 in0.0 mm
10:40 PM 50.2°F10.1°C 43.3°F6.3°C 77% 2.3 mph SE3.7 kmh SE 4.6 mph7.4 kmh 30.30 in1026.1 mb - 0.00 in0.0 mm 0.00 in0.0 mm
10:45 PM 50.1°F10.1°C 43.2°F6.2°C 77% 2.3 mph SE3.7 kmh SE 3.5 mph5.6 kmh 30.30 in1026.1 mb - 0.00 in0.0 mm 0.00 in0.0 mm
10:50 PM 50.2°F10.1°C 43.2°F6.2°C 77% 1.2 mph SE1.9 kmh SE 3.5 mph5.6 kmh 30.31 in1026.4 mb - 0.00 in0.0 mm 0.00 in0.0 mm
10:55 PM 50.1°F10.1°C 43.2°F6.2°C 77% 1.2 mph SE1.9 kmh SE 2.3 mph3.7 kmh 30.30 in1026.1 mb - 0.00 in0.0 mm 0.00 in0.0 mm
11:00 PM 50.2°F10.1°C 43.3°F6.3°C 77% 1.2 mph ESE1.9 kmh ESE 3.5 mph5.6 kmh 30.31 in1026.4 mb - 0.00 in0.0 mm 0.00 in0.0 mm
11:05 PM 50.2°F10.1°C 43.3°F6.3°C 77% 2.3 mph E3.7 kmh E 3.5 mph5.6 kmh 30.31 in1026.4 mb - 0.00 in0.0 mm 0.00 in0.0 mm
11:10 PM 50.2°F10.1°C 43.3°F6.3°C 77% 3.5 mph ESE5.6 kmh ESE 4.6 mph7.4 kmh 30.31 in1026.4 mb - 0.00 in0.0 mm 0.00 in0.0 mm
11:15 PM 50.1°F10.1°C 43.2°F6.2°C 77% 4.6 mph E7.4 kmh E 5.8 mph9.3 kmh 30.31 in1026.4 mb - 0.00 in0.0 mm 0.00 in0.0 mm
11:20 PM 50.1°F10.1°C 43.1°F6.2°C 77% 4.6 mph E7.4 kmh E 6.9 mph11.1 kmh 30.31 in1026.4 mb - 0.00 in0.0 mm 0.00 in0.0 mm
11:25 PM 50.0°F10.0°C 43.1°F6.2°C 77% 4.6 mph E7.4 kmh E 6.9 mph11.1 kmh 30.31 in1026.4 mb - 0.00 in0.0 mm 0.00 in0.0 mm
11:30 PM 50.0°F10.0°C 43.1°F6.2°C 77% 3.5 mph SE5.6 kmh SE 11.5 mph18.5 kmh 30.31 in1026.4 mb - 0.00 in0.0 mm 0.00 in0.0 mm
11:35 PM 50.0°F10.0°C 43.1°F6.2°C 77% 2.3 mph ESE3.7 kmh ESE 3.5 mph5.6 kmh 30.31 in1026.4 mb - 0.00 in0.0 mm 0.00 in0.0 mm
11:40 PM 50.0°F10.0°C 43.1°F6.2°C 77% 3.5 mph SE5.6 kmh SE 6.9 mph11.1 kmh 30.31 in1026.4 mb - 0.00 in0.0 mm 0.00 in0.0 mm
11:45 PM 50.0°F10.0°C 43.1°F6.2°C 77% 3.5 mph SE5.6 kmh SE 5.8 mph9.3 kmh 30.31 in1026.4 mb - 0.00 in0.0 mm 0.00 in0.0 mm
11:50 PM 49.9°F9.9°C 43.0°F6.1°C 77% 2.3 mph ESE3.7 kmh ESE 3.5 mph5.6 kmh 30.31 in1026.4 mb - 0.00 in0.0 mm 0.00 in0.0 mm
11:55 PM 49.9°F9.9°C 43.0°F6.1°C 77% 2.3 mph SSE3.7 kmh SSE 3.5 mph5.6 kmh 30.31 in1026.4 mb - 0.00 in0.0 mm 0.00 in0.0 mm